createdAt,value
2023-03-17T00:01:16.362Z,7.32
2023-03-17T00:03:45.545Z,7.43
2023-03-17T00:06:16.686Z,7.93
2023-03-17T00:08:44.147Z,7.30
2023-03-17T00:11:16.290Z,7.78
2023-03-17T00:13:44.562Z,8.18
2023-03-17T00:16:16.954Z,7.47
2023-03-17T00:18:44.660Z,7.65
2023-03-17T00:21:19.517Z,6.53
2023-03-17T00:23:49.715Z,7.20
2023-03-17T00:26:17.530Z,6.90
2023-03-17T00:28:46.160Z,7.53
2023-03-17T00:31:15.107Z,7.05
2023-03-17T00:33:43.037Z,7.53
2023-03-17T00:36:16.652Z,7.70
2023-03-17T00:38:43.674Z,8.05
2023-03-17T00:41:11.309Z,8.60
2023-03-17T00:43:38.147Z,7.13
2023-03-17T00:46:25.166Z,6.75
2023-03-17T00:48:51.963Z,6.57
2023-03-17T00:51:18.424Z,8.10
2023-03-17T00:53:45.769Z,7.50
2023-03-17T00:56:15.735Z,8.05
2023-03-17T00:58:43.238Z,7.15
2023-03-17T01:01:13.388Z,6.95
2023-03-17T01:03:43.169Z,6.68
2023-03-17T01:06:12.898Z,7.00
2023-03-17T01:08:40.669Z,7.15
2023-03-17T01:11:10.585Z,7.95
2023-03-17T01:13:37.052Z,7.53
2023-03-17T01:16:03.637Z,6.75
2023-03-17T01:18:30.199Z,6.97
2023-03-17T01:20:56.696Z,6.68
2023-03-17T01:23:23.109Z,8.20
2023-03-17T01:25:50.114Z,6.65
2023-03-17T01:28:18.481Z,6.60
2023-03-17T01:30:45.499Z,6.65
2023-03-17T01:33:14.528Z,6.95
2023-03-17T01:35:43.647Z,6.57
2023-03-17T01:38:10.571Z,6.18
2023-03-17T01:40:42.694Z,7.00
2023-03-17T01:43:09.144Z,7.72
2023-03-17T01:46:13.253Z,7.18
2023-03-17T01:48:44.609Z,5.57
2023-03-17T01:51:35.800Z,6.88
2023-03-17T01:54:08.332Z,6.22
2023-03-17T01:56:36.343Z,6.82
2023-03-17T01:59:07.418Z,7.25
2023-03-17T02:01:38.577Z,7.20
2023-03-17T02:04:06.412Z,7.22
2023-03-17T02:06:33.656Z,7.82
2023-03-17T02:09:04.456Z,7.45
2023-03-17T02:11:34.237Z,7.32
2023-03-17T02:14:00.662Z,6.97
2023-03-17T02:16:29.962Z,6.88
2023-03-17T02:18:56.549Z,7.68
2023-03-17T02:21:37.106Z,7.43
2023-03-17T02:24:07.913Z,6.88
2023-03-17T02:26:36.226Z,7.38
2023-03-17T02:29:09.406Z,6.95
2023-03-17T02:31:38.698Z,6.43
2023-03-17T02:34:07.720Z,6.93
2023-03-17T02:36:35.979Z,6.80
2023-03-17T02:39:06.777Z,6.65
2023-03-17T02:41:34.220Z,6.03
2023-03-17T02:44:06.370Z,6.50
2023-03-17T02:46:32.846Z,6.65
2023-03-17T02:49:00.613Z,6.65
2023-03-17T02:51:27.069Z,6.30
2023-03-17T02:53:53.515Z,6.03
2023-03-17T02:56:20.048Z,6.13
2023-03-17T02:58:51.574Z,6.53
2023-03-17T03:01:18.476Z,6.18
2023-03-17T03:03:45.010Z,7.28
2023-03-17T03:06:16.197Z,6.85
2023-03-17T03:08:42.789Z,6.57
2023-03-17T03:11:09.168Z,6.43
2023-03-17T03:13:36.600Z,6.57
2023-03-17T03:16:05.858Z,6.97
2023-03-17T03:18:34.585Z,6.85
2023-03-17T03:21:01.459Z,6.35
2023-03-17T03:23:28.140Z,6.60
2023-03-17T03:25:57.594Z,6.32
2023-03-17T03:28:24.274Z,6.45
2023-03-17T03:30:50.779Z,6.93
2023-03-17T03:33:17.940Z,6.57
2023-03-17T03:35:44.424Z,6.47
2023-03-17T03:38:12.986Z,6.47
2023-03-17T03:40:39.699Z,6.60
2023-03-17T03:43:16.235Z,6.90
2023-03-17T03:45:48.463Z,6.25
2023-03-17T03:48:14.967Z,6.57
2023-03-17T03:50:41.435Z,6.85
2023-03-17T03:53:07.857Z,6.40
2023-03-17T03:55:34.375Z,6.82
2023-03-17T03:58:03.298Z,7.10
2023-03-17T04:00:30.098Z,6.28
2023-03-17T04:02:56.657Z,6.97
2023-03-17T04:05:23.104Z,7.00
2023-03-17T04:07:49.641Z,6.72
2023-03-17T04:10:19.574Z,6.78
2023-03-17T04:12:49.923Z,6.57
2023-03-17T04:15:18.578Z,6.72
2023-03-17T04:17:45.334Z,6.53
2023-03-17T04:20:13.463Z,6.78
2023-03-17T04:22:41.641Z,6.75
2023-03-17T04:25:12.853Z,6.22
2023-03-17T04:27:39.254Z,6.35
2023-03-17T04:30:07.796Z,6.45
2023-03-17T04:32:34.682Z,7.00
2023-03-17T04:35:01.250Z,6.75
2023-03-17T04:37:27.653Z,7.50
2023-03-17T04:39:55.785Z,6.18
2023-03-17T04:42:22.317Z,6.57
2023-03-17T04:44:48.738Z,6.15
2023-03-17T04:47:18.289Z,6.82
2023-03-17T04:49:44.753Z,7.50
2023-03-17T04:52:11.464Z,7.18
2023-03-17T04:54:40.287Z,6.60
2023-03-17T04:57:06.899Z,6.97
2023-03-17T04:59:35.723Z,7.13
2023-03-17T05:02:02.355Z,6.43
2023-03-17T05:04:32.023Z,7.22
2023-03-17T05:06:59.293Z,7.18
2023-03-17T05:09:28.721Z,7.65
2023-03-17T05:11:55.634Z,6.93
2023-03-17T05:14:22.404Z,6.60
2023-03-17T05:16:49.474Z,6.85
2023-03-17T05:19:17.408Z,6.75
2023-03-17T05:21:44.168Z,6.82
2023-03-17T05:24:10.707Z,6.60
2023-03-17T05:26:37.583Z,7.10
2023-03-17T05:29:04.530Z,6.85
2023-03-17T05:31:31.874Z,7.05
2023-03-17T05:33:58.763Z,7.20
2023-03-17T05:36:25.138Z,6.78
2023-03-17T05:38:52.277Z,7.10
2023-03-17T05:41:18.623Z,6.32
2023-03-17T05:43:44.981Z,6.72
2023-03-17T05:46:11.376Z,6.93
2023-03-17T05:48:41.596Z,6.70
2023-03-17T05:51:08.526Z,7.40
2023-03-17T05:53:40.130Z,6.90
2023-03-17T05:56:09.326Z,7.20
2023-03-17T05:58:36.017Z,6.93
2023-03-17T06:01:18.106Z,6.68
2023-03-17T06:03:44.592Z,6.47
2023-03-17T06:06:10.996Z,6.95
2023-03-17T06:08:37.385Z,6.60
2023-03-17T06:11:03.728Z,6.63
2023-03-17T06:13:30.260Z,6.65
2023-03-17T06:15:57.469Z,6.28
2023-03-17T06:18:23.935Z,6.88
2023-03-17T06:20:50.646Z,6.80
2023-03-17T06:23:18.743Z,6.55
2023-03-17T06:25:45.101Z,6.60
2023-03-17T06:28:23.029Z,6.80
2023-03-17T06:30:50.026Z,6.38
2023-03-17T06:33:23.108Z,6.30
2023-03-17T06:35:49.520Z,5.70
2023-03-17T06:38:15.953Z,6.38
2023-03-17T06:40:42.392Z,6.45
2023-03-17T06:43:09.206Z,6.80
2023-03-17T06:45:35.960Z,6.30
2023-03-17T06:48:02.613Z,6.95
2023-03-17T06:50:29.093Z,6.85
2023-03-17T06:52:55.938Z,5.95
2023-03-17T06:55:22.329Z,6.80
2023-03-17T06:57:50.947Z,6.65
2023-03-17T07:00:22.367Z,6.50
2023-03-17T07:02:49.596Z,6.53
2023-03-17T07:05:16.136Z,6.60
2023-03-17T07:07:42.507Z,6.68
2023-03-17T07:10:13.683Z,6.57
2023-03-17T07:12:40.066Z,6.60
2023-03-17T07:15:06.890Z,6.72
2023-03-17T07:17:33.868Z,6.63
2023-03-17T07:20:00.286Z,6.85
2023-03-17T07:22:27.207Z,7.10
2023-03-17T07:24:53.590Z,6.40
2023-03-17T07:27:22.843Z,6.43
2023-03-17T07:29:49.576Z,6.57
2023-03-17T07:32:16.039Z,6.55
2023-03-17T07:34:42.642Z,6.78
2023-03-17T07:37:10.190Z,7.43
2023-03-17T07:39:36.557Z,7.55
2023-03-17T07:42:02.940Z,7.00
2023-03-17T07:44:29.384Z,7.05
2023-03-17T07:46:56.489Z,7.18
2023-03-17T07:49:34.297Z,8.27
2023-03-17T07:52:06.976Z,8.00
2023-03-17T07:54:33.627Z,7.88
2023-03-17T07:56:59.958Z,7.38
2023-03-17T07:59:26.344Z,7.40
2023-03-17T08:01:53.132Z,7.20
2023-03-17T08:04:19.513Z,7.85
2023-03-17T08:06:46.882Z,7.78
2023-03-17T08:09:13.278Z,7.38
2023-03-17T08:11:39.686Z,7.95
2023-03-17T08:14:06.642Z,7.82
2023-03-17T08:16:33.528Z,7.97
2023-03-17T08:19:00.191Z,7.88
2023-03-17T08:21:30.349Z,9.02
2023-03-17T08:23:56.779Z,8.75
2023-03-17T08:26:23.392Z,7.35
2023-03-17T08:28:50.222Z,7.88
2023-03-17T08:31:19.578Z,7.47
2023-03-17T08:33:48.487Z,7.72
2023-03-17T08:36:16.394Z,7.93
2023-03-17T08:38:45.066Z,7.78
2023-03-17T08:41:16.495Z,7.82
2023-03-17T08:43:44.001Z,7.50
2023-03-17T08:46:22.984Z,7.50
2023-03-17T08:48:51.117Z,7.18
2023-03-17T08:51:21.494Z,7.30
2023-03-17T08:53:49.716Z,7.28
2023-03-17T08:56:16.834Z,7.80
2023-03-17T08:58:49.278Z,7.40
2023-03-17T09:01:16.543Z,7.63
2023-03-17T09:03:52.323Z,7.97
2023-03-17T09:06:19.257Z,7.55
2023-03-17T09:08:47.405Z,8.43
2023-03-17T09:11:17.085Z,8.20
2023-03-17T09:13:44.830Z,7.72
2023-03-17T09:16:11.494Z,7.28
2023-03-17T09:18:38.878Z,7.88
2023-03-17T09:21:06.058Z,7.63
2023-03-17T09:23:33.570Z,7.22
2023-03-17T09:26:00.728Z,7.18
2023-03-17T09:28:27.692Z,8.13
2023-03-17T09:30:58.559Z,7.43
2023-03-17T09:33:25.762Z,8.10
2023-03-17T09:35:52.891Z,8.02
2023-03-17T09:38:19.371Z,7.13
2023-03-17T09:41:12.113Z,7.25
2023-03-17T09:43:55.564Z,6.88
2023-03-17T09:46:41.627Z,6.85
2023-03-17T09:49:11.905Z,7.10
2023-03-17T09:51:38.750Z,5.95
2023-03-17T09:54:12.768Z,6.40
2023-03-17T09:56:43.972Z,7.57
2023-03-17T09:59:30.384Z,6.50
2023-03-17T10:01:57.587Z,5.55
2023-03-17T10:04:24.718Z,6.28
2023-03-17T10:06:57.794Z,6.20
2023-03-17T10:09:46.544Z,5.80
2023-03-17T10:12:27.978Z,5.60
2023-03-17T10:15:02.692Z,5.70
2023-03-17T10:17:37.499Z,5.70
2023-03-17T10:20:09.040Z,6.47
2023-03-17T10:22:42.912Z,5.97
2023-03-17T10:25:14.924Z,8.10
2023-03-17T10:27:45.394Z,7.40
2023-03-17T10:30:17.154Z,7.43
2023-03-17T10:32:46.657Z,6.97
2023-03-17T10:35:16.082Z,7.05
2023-03-17T10:37:44.061Z,7.20
2023-03-17T10:40:21.889Z,7.30
2023-03-17T10:42:53.131Z,7.47
2023-03-17T10:45:30.720Z,7.13
2023-03-17T10:47:58.611Z,5.65
2023-03-17T10:50:40.992Z,4.80
2023-03-17T10:53:18.281Z,5.00
2023-03-17T10:55:50.888Z,4.60
2023-03-17T10:58:20.327Z,4.22
2023-03-17T11:00:57.752Z,4.72
2023-03-17T11:03:29.995Z,4.60
2023-03-17T11:05:58.292Z,4.97
2023-03-17T11:08:24.919Z,4.43
2023-03-17T11:10:56.823Z,4.90
2023-03-17T11:13:29.170Z,5.65
2023-03-17T11:16:23.312Z,5.85
2023-03-17T11:18:54.463Z,4.82
2023-03-17T11:21:27.496Z,5.50
2023-03-17T11:24:01.493Z,5.38
2023-03-17T11:26:41.314Z,5.00
2023-03-17T11:29:30.293Z,5.57
2023-03-17T11:32:16.526Z,5.05
2023-03-17T11:35:02.232Z,4.10
2023-03-17T11:38:03.000Z,3.72
2023-03-17T11:40:36.109Z,4.30
2023-03-17T11:43:18.936Z,4.68
2023-03-17T11:45:57.306Z,5.13
2023-03-17T11:48:29.925Z,4.68
2023-03-17T11:51:15.522Z,4.45
2023-03-17T11:53:53.630Z,4.78
2023-03-17T11:56:25.290Z,3.85
2023-03-17T11:58:57.374Z,4.00
2023-03-17T12:01:29.050Z,4.18
2023-03-17T12:04:20.316Z,4.00
2023-03-17T12:06:51.310Z,4.32
2023-03-17T12:09:39.477Z,4.38
2023-03-17T12:12:13.788Z,4.40
2023-03-17T12:14:48.647Z,3.97
2023-03-17T12:17:21.477Z,4.03
2023-03-17T12:19:58.365Z,4.20
2023-03-17T12:22:34.034Z,4.22
2023-03-17T12:25:12.553Z,3.95
2023-03-17T12:27:48.161Z,3.90
2023-03-17T12:30:29.087Z,4.32
2023-03-17T12:33:21.225Z,4.25
2023-03-17T12:35:47.954Z,5.05
2023-03-17T12:38:22.837Z,5.45
2023-03-17T12:41:05.498Z,4.78
2023-03-17T12:43:42.319Z,5.30
2023-03-17T12:46:38.278Z,4.95
2023-03-17T12:49:24.283Z,5.30
2023-03-17T12:52:16.739Z,5.03
2023-03-17T12:54:49.762Z,4.93
2023-03-17T12:57:30.938Z,4.90
2023-03-17T13:00:20.287Z,5.50
2023-03-17T13:02:51.017Z,4.97
2023-03-17T13:05:28.567Z,4.80
2023-03-17T13:07:57.311Z,5.60
2023-03-17T13:10:42.521Z,5.72
2023-03-17T13:13:23.141Z,6.00
2023-03-17T13:15:55.337Z,5.43
2023-03-17T13:18:33.989Z,5.60
2023-03-17T13:21:00.803Z,6.30
2023-03-17T13:23:43.969Z,7.38
2023-03-17T13:26:18.177Z,7.05
2023-03-17T13:28:50.176Z,7.53
2023-03-17T13:31:16.620Z,6.10
2023-03-17T13:33:54.522Z,6.32
2023-03-17T13:36:44.316Z,6.75
2023-03-17T13:39:28.369Z,6.28
2023-03-17T13:42:18.643Z,6.45
2023-03-17T13:45:19.632Z,5.88
2023-03-17T13:47:46.998Z,5.38
2023-03-17T13:50:17.534Z,5.40
2023-03-17T13:53:01.777Z,5.32
2023-03-17T13:55:36.214Z,4.95
2023-03-17T13:58:11.122Z,5.55
2023-03-17T14:00:41.242Z,4.75
2023-03-17T14:03:13.903Z,6.15
2023-03-17T14:05:41.656Z,6.03
2023-03-17T14:08:34.716Z,6.50
2023-03-17T14:11:19.401Z,6.13
2023-03-17T14:16:26.437Z,5.55
2023-03-17T14:19:00.277Z,6.03
2023-03-17T14:21:35.960Z,6.47
2023-03-17T14:24:24.500Z,5.63
2023-03-17T14:26:52.323Z,6.30
2023-03-17T14:29:25.204Z,7.03
2023-03-17T14:32:02.390Z,5.88
2023-03-17T14:34:28.955Z,5.70
2023-03-17T14:37:00.726Z,6.05
2023-03-17T14:39:27.198Z,6.05
2023-03-17T14:41:59.200Z,5.97
2023-03-17T14:44:25.992Z,5.57
2023-03-17T14:47:02.261Z,4.57
2023-03-17T14:49:30.788Z,5.35
2023-03-17T14:51:58.268Z,4.88
2023-03-17T14:54:34.121Z,4.57
2023-03-17T14:57:13.552Z,5.15
2023-03-17T14:59:55.012Z,4.57
2023-03-17T15:02:27.742Z,4.93
2023-03-17T15:05:01.238Z,5.05
2023-03-17T15:07:42.941Z,5.63
2023-03-17T15:10:19.241Z,5.40
2023-03-17T15:12:46.713Z,5.47
2023-03-17T15:15:27.813Z,5.80
2023-03-17T15:17:56.878Z,5.47
2023-03-17T15:20:24.329Z,5.82
2023-03-17T15:23:04.343Z,5.70
2023-03-17T15:25:39.266Z,5.43
2023-03-17T15:28:12.739Z,5.10
2023-03-17T15:30:47.683Z,5.10
2023-03-17T15:33:34.565Z,4.78
2023-03-17T15:36:01.566Z,4.38
2023-03-17T15:38:28.694Z,4.80
2023-03-17T15:40:55.076Z,4.50
2023-03-17T15:43:22.487Z,4.68
2023-03-17T15:45:59.917Z,4.60
2023-03-17T15:48:29.828Z,4.32
2023-03-17T15:50:59.900Z,4.20
2023-03-17T15:53:26.827Z,4.43
2023-03-17T15:55:53.350Z,4.13
2023-03-17T15:58:20.317Z,4.65
2023-03-17T16:00:51.785Z,4.72
2023-03-17T16:03:32.210Z,5.10
2023-03-17T16:06:00.491Z,6.28
2023-03-17T16:08:27.027Z,7.07
2023-03-17T16:10:53.456Z,5.90
2023-03-17T16:13:20.269Z,6.40
2023-03-17T16:15:56.538Z,6.30
2023-03-17T16:18:32.694Z,4.50
2023-03-17T16:20:59.719Z,4.07
2023-03-17T16:23:29.627Z,4.82
2023-03-17T16:26:07.883Z,5.38
2023-03-17T16:28:41.122Z,5.68
2023-03-17T16:31:24.343Z,4.57
2023-03-17T16:33:53.476Z,4.88
2023-03-17T16:36:21.642Z,5.10
2023-03-17T16:38:49.108Z,4.50
2023-03-17T16:41:21.371Z,4.60
2023-03-17T16:44:01.918Z,4.32
2023-03-17T16:46:34.616Z,4.50
2023-03-17T16:49:01.890Z,5.15
2023-03-17T16:51:28.265Z,4.63
2023-03-17T16:53:56.016Z,4.63
2023-03-17T16:56:24.620Z,4.55
2023-03-17T16:58:51.147Z,4.68
2023-03-17T17:01:24.858Z,3.97
2023-03-17T17:03:51.316Z,4.30
2023-03-17T17:06:18.970Z,4.22
2023-03-17T17:08:46.750Z,4.50
2023-03-17T17:11:14.981Z,4.10
2023-03-17T17:13:42.848Z,4.40
2023-03-17T17:16:29.864Z,4.15
2023-03-17T17:18:57.403Z,4.00
2023-03-17T17:21:23.900Z,4.38
2023-03-17T17:23:52.826Z,5.03
2023-03-17T17:26:19.432Z,4.72
2023-03-17T17:28:45.913Z,4.47
2023-03-17T17:31:12.353Z,4.38
2023-03-17T17:33:39.024Z,4.50
2023-03-17T17:36:11.621Z,4.05
2023-03-17T17:38:38.107Z,4.10
2023-03-17T17:41:06.770Z,4.53
2023-03-17T17:43:33.332Z,4.22
2023-03-17T17:45:59.932Z,4.75
2023-03-17T17:48:27.974Z,5.00
2023-03-17T17:50:56.059Z,5.05
2023-03-17T17:53:22.897Z,5.00
2023-03-17T17:55:50.222Z,5.07
2023-03-17T17:58:20.026Z,5.22
2023-03-17T18:00:46.692Z,5.50
2023-03-17T18:03:13.281Z,5.30
2023-03-17T18:05:40.048Z,5.82
2023-03-17T18:08:06.640Z,6.05
2023-03-17T18:10:34.248Z,6.18
2023-03-17T18:13:00.972Z,7.15
2023-03-17T18:15:27.807Z,6.22
2023-03-17T18:17:54.618Z,5.60
2023-03-17T18:20:23.206Z,5.95
2023-03-17T18:22:50.857Z,5.40
2023-03-17T18:25:19.095Z,5.82
2023-03-17T18:27:47.135Z,5.40
2023-03-17T18:30:20.673Z,5.50
2023-03-17T18:32:49.690Z,5.82
2023-03-17T18:35:19.521Z,5.43
2023-03-17T18:37:46.190Z,5.93
2023-03-17T18:40:16.403Z,6.00
2023-03-17T18:42:45.628Z,7.43
2023-03-17T18:45:12.578Z,6.95
2023-03-17T18:47:40.066Z,6.88
2023-03-17T18:50:08.260Z,6.85
2023-03-17T18:52:37.234Z,6.70
2023-03-17T18:55:05.371Z,6.15
2023-03-17T18:57:32.164Z,5.88
2023-03-17T18:59:58.592Z,6.72
2023-03-17T19:02:25.216Z,6.35
2023-03-17T19:04:51.660Z,6.70
2023-03-17T19:07:18.491Z,7.07
2023-03-17T19:09:45.131Z,6.78
2023-03-17T19:12:12.122Z,7.18
2023-03-17T19:14:38.858Z,7.40
2023-03-17T19:17:05.549Z,7.68
2023-03-17T19:19:33.382Z,7.03
2023-03-17T19:22:00.308Z,7.45
2023-03-17T19:24:27.396Z,8.10
2023-03-17T19:26:53.879Z,7.78
2023-03-17T19:29:20.323Z,8.88
2023-03-17T19:31:48.477Z,10.07
2023-03-17T19:34:15.350Z,8.43
2023-03-17T19:36:46.258Z,7.93
2023-03-17T19:39:13.718Z,8.57
2023-03-17T19:41:40.367Z,8.80
2023-03-17T19:44:06.931Z,7.82
2023-03-17T19:46:37.137Z,8.10
2023-03-17T19:49:04.751Z,7.50
2023-03-17T19:51:32.817Z,7.97
2023-03-17T19:53:59.545Z,7.40
2023-03-17T19:56:27.875Z,8.00
2023-03-17T19:58:54.890Z,9.27
2023-03-17T20:01:22.157Z,8.10
2023-03-17T20:03:48.891Z,7.75
2023-03-17T20:06:15.586Z,9.40
2023-03-17T20:08:43.319Z,9.88
2023-03-17T20:11:14.102Z,7.35
2023-03-17T20:14:01.644Z,9.35
2023-03-17T20:16:31.321Z,8.63
2023-03-17T20:18:57.909Z,9.90
2023-03-17T20:21:24.395Z,7.43
2023-03-17T20:23:51.178Z,8.73
2023-03-17T20:26:17.677Z,9.00
2023-03-17T20:28:44.066Z,8.70
2023-03-17T20:31:10.736Z,9.35
2023-03-17T20:33:37.177Z,7.63
2023-03-17T20:36:04.626Z,7.70
2023-03-17T20:38:33.332Z,9.65
2023-03-17T20:41:13.690Z,6.82
2023-03-17T20:43:40.431Z,8.35
2023-03-17T20:46:15.065Z,8.38
2023-03-17T20:48:41.659Z,7.75
2023-03-17T20:51:15.570Z,8.05
2023-03-17T20:53:46.783Z,9.38
2023-03-17T20:56:19.657Z,9.30
2023-03-17T20:58:47.006Z,7.05
2023-03-17T21:01:14.875Z,9.13
2023-03-17T21:03:42.802Z,8.32
2023-03-17T21:06:10.475Z,9.15
2023-03-17T21:08:38.053Z,9.90
2023-03-17T21:11:06.956Z,9.02
2023-03-17T21:13:34.828Z,8.70
2023-03-17T21:16:02.197Z,8.82
2023-03-17T21:18:29.548Z,8.85
2023-03-17T21:20:56.675Z,8.10
2023-03-17T21:23:23.771Z,8.88
2023-03-17T21:25:56.394Z,8.13
2023-03-17T21:28:23.540Z,8.93
2023-03-17T21:30:50.202Z,8.23
2023-03-17T21:33:16.668Z,8.38
2023-03-17T21:35:43.176Z,8.95
2023-03-17T21:38:10.068Z,9.02
2023-03-17T21:40:36.462Z,8.50
2023-03-17T21:43:03.672Z,8.48
2023-03-17T21:45:30.306Z,7.97
2023-03-17T21:47:56.829Z,8.82
2023-03-17T21:50:23.318Z,8.93
2023-03-17T21:52:49.883Z,7.35
2023-03-17T21:55:16.520Z,7.65
2023-03-17T21:57:43.150Z,7.38
2023-03-17T22:00:11.662Z,7.70
2023-03-17T22:02:38.058Z,7.07
2023-03-17T22:05:05.325Z,6.78
2023-03-17T22:08:02.605Z,6.65
2023-03-17T22:10:29.321Z,7.03
2023-03-17T22:13:10.285Z,7.30
2023-03-17T22:15:40.957Z,7.18
2023-03-17T22:18:51.890Z,7.22
2023-03-17T22:21:33.837Z,8.60
2023-03-17T22:24:12.581Z,8.27
2023-03-17T22:26:39.100Z,8.57
2023-03-17T22:29:05.486Z,9.05
2023-03-17T22:31:45.353Z,10.10
2023-03-17T22:34:26.676Z,9.40
2023-03-17T22:36:53.032Z,9.63
2023-03-17T22:39:19.452Z,10.10
2023-03-17T22:41:46.085Z,10.50
2023-03-17T22:44:12.596Z,9.77
2023-03-17T22:46:42.833Z,10.02
2023-03-17T22:49:10.227Z,10.05
2023-03-17T22:51:42.579Z,10.07
2023-03-17T22:54:11.208Z,10.73
2023-03-17T22:56:37.669Z,11.02
2023-03-17T22:59:04.283Z,10.43
2023-03-17T23:01:31.841Z,10.88
2023-03-17T23:03:58.358Z,11.70
2023-03-17T23:06:25.052Z,11.20
2023-03-17T23:08:52.177Z,10.80
2023-03-17T23:11:22.973Z,11.40
2023-03-17T23:13:50.562Z,11.68
2023-03-17T23:16:17.100Z,10.35
2023-03-17T23:18:46.689Z,10.43
2023-03-17T23:21:35.857Z,10.07
2023-03-17T23:24:03.758Z,10.40
2023-03-17T23:26:31.854Z,9.93
2023-03-17T23:28:58.470Z,11.23
2023-03-17T23:31:25.469Z,10.18
2023-03-17T23:33:52.553Z,10.90
2023-03-17T23:36:19.560Z,11.18
2023-03-17T23:38:46.324Z,9.65
2023-03-17T23:41:14.299Z,9.80
2023-03-17T23:43:41.174Z,10.27
2023-03-17T23:46:08.259Z,10.70
2023-03-17T23:48:34.687Z,10.57
2023-03-17T23:51:02.892Z,10.88
2023-03-17T23:53:29.338Z,9.77
2023-03-17T23:55:55.698Z,9.55
2023-03-17T23:58:22.852Z,9.68
